Time;durP1;ratioP1;P1;durP2;ratioP2;P2;SDS_P1;SDS_P2;PMS_P1;PMS_P2;Temp;Humidity;BMP_temperature;BMP_pressure;BME280_temperature;BME280_humidity;BME280_pressure;Samples;Min_cycle;Max_cycle;Signal;HPM_P1;HPM_P2
2021/12/17 00:01:02;;;;;;;189.48;33.38;;;8.20;99.90;;;;;;5052941;28;20095;-72
2021/12/17 00:03:39;;;;;;;156.27;31.80;;;8.10;99.90;;;;;;5053527;28;20120;-72
2021/12/17 00:08:35;;;;;;;175.50;33.67;;;8.10;99.90;;;;;;5052819;28;20163;-75
2021/12/17 00:11:01;;;;;;;158.30;32.75;;;8.10;99.90;;;;;;5069257;28;20130;-73
2021/12/17 00:13:27;;;;;;;148.45;32.03;;;8.10;99.90;;;;;;5035333;28;20394;-72
2021/12/17 00:15:53;;;;;;;130.63;28.05;;;8.10;99.90;;;;;;5052313;28;20546;-74
2021/12/17 00:18:28;;;;;;;139.43;28.48;;;8.10;99.90;;;;;;5036485;28;20479;-74
2021/12/17 00:40:18;;;;;;;169.43;31.15;;;8.10;99.90;;;;;;5053476;28;20040;-72
2021/12/17 00:48:36;;;;;;;109.18;24.35;;;8.10;99.90;;;;;;5052198;28;20540;-72
2021/12/17 00:53:41;;;;;;;100.80;22.75;;;8.20;99.90;;;;;;5053090;28;20041;-72
2021/12/17 00:56:07;;;;;;;132.60;23.88;;;8.10;99.90;;;;;;5036328;28;20060;-72
2021/12/17 00:58:32;;;;;;;129.30;24.15;;;8.10;99.90;;;;;;5052668;28;20041;-72
2021/12/17 01:00:58;;;;;;;138.30;21.92;;;8.10;99.90;;;;;;5052523;28;20174;-72
2021/12/17 01:03:24;;;;;;;134.00;22.52;;;8.20;99.90;;;;;;5052010;28;20063;-72
2021/12/17 01:05:49;;;;;;;130.63;21.65;;;8.10;99.90;;;;;;5052333;28;20383;-72
2021/12/17 01:08:15;;;;;;;109.57;20.52;;;8.10;99.90;;;;;;5052055;28;20137;-72
2021/12/17 01:10:46;;;;;;;80.13;18.27;;;8.10;99.90;;;;;;5051989;28;20049;-72
2021/12/17 01:13:12;;;;;;;126.07;20.70;;;8.10;99.90;;;;;;5035733;28;20443;-76
2021/12/17 01:15:40;;;;;;;136.60;21.60;;;8.10;99.90;;;;;;5052172;28;20541;-72
2021/12/17 01:18:11;;;;;;;76.32;17.35;;;8.10;99.90;;;;;;5051822;28;20040;-75
2021/12/17 01:36:48;;;;;;;99.75;18.25;;;8.10;99.90;;;;;;5051447;28;20368;-75
2021/12/17 01:44:29;;;;;;;132.13;19.27;;;8.10;99.90;;;;;;5052231;28;20072;-73
2021/12/17 01:46:55;;;;;;;120.07;17.65;;;8.10;99.90;;;;;;5052375;28;20426;-74
2021/12/17 02:00:10;;;;;;;85.20;16.65;;;8.10;99.90;;;;;;5055358;28;20057;-72
2021/12/17 02:02:42;;;;;;;80.03;16.27;;;8.10;99.90;;;;;;5055790;28;20045;-74
2021/12/17 02:05:10;;;;;;;76.32;16.30;;;8.10;99.90;;;;;;5055136;28;20447;-72
2021/12/17 02:07:36;;;;;;;96.15;16.55;;;8.10;99.90;;;;;;5055041;28;20037;-72
2021/12/17 02:31:41;;;;;;;52.72;13.07;;;8.10;99.90;;;;;;5055329;28;20048;-73
2021/12/17 02:34:39;;;;;;;52.25;13.20;;;8.10;99.90;;;;;;5054737;28;20086;-73
2021/12/17 02:37:01;;;;;;;55.65;12.35;;;8.10;99.90;;;;;;5053809;28;20049;-72
2021/12/17 02:40:11;;;;;;;49.93;13.70;;;8.10;99.90;;;;;;5054678;28;20048;-72
2021/12/17 02:47:42;;;;;;;63.05;13.85;;;8.00;99.90;;;;;;5054210;28;20045;-74
2021/12/17 02:50:10;;;;;;;60.03;13.40;;;8.10;99.90;;;;;;5037555;28;20037;-74
2021/12/17 02:52:39;;;;;;;60.00;13.80;;;8.10;99.90;;;;;;5054831;28;20051;-72
2021/12/17 02:55:07;;;;;;;84.43;14.65;;;8.10;99.90;;;;;;5038220;28;20067;-72
2021/12/17 02:57:34;;;;;;;56.63;14.18;;;8.00;99.90;;;;;;5054724;28;20045;-72
2021/12/17 03:00:05;;;;;;;62.67;14.15;;;8.00;99.90;;;;;;5036208;28;20381;-73
2021/12/17 03:02:33;;;;;;;69.78;14.32;;;8.10;99.90;;;;;;5053843;28;20509;-72
2021/12/17 03:04:59;;;;;;;54.00;12.95;;;8.10;99.90;;;;;;5054630;28;20049;-73
2021/12/17 03:07:24;;;;;;;74.10;15.30;;;8.10;99.90;;;;;;5054090;28;20151;-72
2021/12/17 03:10:23;;;;;;;78.90;15.05;;;8.00;99.90;;;;;;5053993;28;20033;-72
2021/12/17 03:18:09;;;;;;;55.38;14.07;;;8.10;99.90;;;;;;5054630;28;20045;-72
2021/12/17 03:26:01;;;;;;;81.28;14.02;;;8.00;99.90;;;;;;5053999;28;20463;-72
2021/12/17 03:28:27;;;;;;;64.18;13.57;;;8.10;99.90;;;;;;5053832;28;20040;-73
2021/12/17 03:30:53;;;;;;;68.32;14.30;;;8.00;99.90;;;;;;5053869;28;20166;-75
2021/12/17 03:33:20;;;;;;;64.30;14.77;;;8.10;99.90;;;;;;5053494;28;20054;-72
2021/12/17 03:35:45;;;;;;;70.20;14.02;;;8.00;99.90;;;;;;5036684;28;20049;-71
2021/12/17 03:38:11;;;;;;;62.60;14.23;;;8.10;99.90;;;;;;5038007;28;20071;-72
2021/12/17 03:40:39;;;;;;;66.10;14.27;;;8.00;99.90;;;;;;5054043;28;20039;-72
2021/12/17 03:43:11;;;;;;;63.10;13.52;;;8.00;99.90;;;;;;5054032;28;20045;-72
2021/12/17 03:45:38;;;;;;;73.40;13.57;;;8.00;99.90;;;;;;5053420;28;20049;-73
2021/12/17 03:48:04;;;;;;;53.00;13.38;;;8.10;99.90;;;;;;5053291;28;20045;-72
2021/12/17 03:50:35;;;;;;;50.25;14.20;;;8.10;99.90;;;;;;5053753;28;20127;-74
2021/12/17 03:53:01;;;;;;;61.28;14.77;;;8.00;99.90;;;;;;5053282;28;20505;-75
2021/12/17 03:55:26;;;;;;;72.10;14.55;;;8.10;99.90;;;;;;5053158;28;20041;-75
2021/12/17 03:57:52;;;;;;;60.92;14.07;;;8.10;99.90;;;;;;5052493;28;20049;-72
2021/12/17 04:00:19;;;;;;;65.82;14.90;;;8.00;99.90;;;;;;5052955;28;20530;-72
2021/12/17 04:02:46;;;;;;;55.42;14.73;;;8.00;99.90;;;;;;5053097;28;20479;-72
2021/12/17 04:05:12;;;;;;;61.10;14.90;;;8.00;99.90;;;;;;5036834;28;20037;-72
2021/12/17 04:07:37;;;;;;;81.35;15.88;;;8.00;99.90;;;;;;5053233;28;20041;-76
2021/12/17 04:10:04;;;;;;;84.50;16.42;;;8.10;99.90;;;;;;5053022;28;20045;-74
2021/12/17 04:12:45;;;;;;;73.93;15.23;;;8.00;99.90;;;;;;5036894;28;20044;-72
2021/12/17 04:15:13;;;;;;;74.22;14.98;;;8.00;99.90;;;;;;5053008;28;20099;-73
2021/12/17 04:17:44;;;;;;;76.15;15.80;;;8.10;99.90;;;;;;5036149;28;20360;-73
2021/12/17 04:20:10;;;;;;;73.80;15.18;;;8.00;99.90;;;;;;5053650;28;20041;-72
2021/12/17 04:22:36;;;;;;;70.43;16.17;;;8.00;99.90;;;;;;5052537;28;20091;-72
2021/12/17 04:25:02;;;;;;;78.22;15.85;;;8.00;99.90;;;;;;5053002;28;20048;-74
2021/12/17 04:27:28;;;;;;;64.63;15.60;;;8.10;99.90;;;;;;5052766;28;20076;-72
2021/12/17 04:29:55;;;;;;;66.88;15.63;;;8.00;99.90;;;;;;5052332;28;20071;-73
2021/12/17 04:32:21;;;;;;;65.65;16.42;;;8.10;99.90;;;;;;5053173;28;20041;-72
2021/12/17 04:34:47;;;;;;;76.97;16.48;;;8.10;99.90;;;;;;5052926;28;20099;-73
2021/12/17 04:37:12;;;;;;;72.57;15.60;;;8.00;99.90;;;;;;5053086;28;20049;-75
2021/12/17 04:39:38;;;;;;;63.95;15.73;;;8.00;99.90;;;;;;5052614;28;20041;-72
2021/12/17 04:42:11;;;;;;;63.08;15.38;;;8.10;99.90;;;;;;5052732;28;20076;-76
2021/12/17 04:44:42;;;;;;;64.28;15.48;;;8.10;99.90;;;;;;5052381;28;20087;-72
2021/12/17 04:57:39;;;;;;;60.08;15.10;;;8.10;99.90;;;;;;5032642;28;20468;-72
2021/12/17 05:00:10;;;;;;;68.38;16.33;;;8.00;99.90;;;;;;5032643;28;20099;-74
2021/12/17 05:02:42;;;;;;;74.60;16.88;;;8.10;99.90;;;;;;5032516;28;20045;-72
2021/12/17 05:05:10;;;;;;;58.22;15.32;;;8.00;99.90;;;;;;5032426;28;20042;-75
2021/12/17 05:07:42;;;;;;;60.28;15.35;;;8.10;99.90;;;;;;5032008;28;20041;-74
2021/12/17 05:10:19;;;;;;;45.00;14.15;;;8.10;99.90;;;;;;5033064;28;20129;-72
2021/12/17 05:18:23;;;;;;;53.92;13.65;;;8.10;99.90;;;;;;5032608;28;20085;-72
2021/12/17 05:20:53;;;;;;;94.78;16.90;;;8.10;99.90;;;;;;5039718;28;20468;-72
2021/12/17 05:23:28;;;;;;;62.10;14.73;;;8.10;99.90;;;;;;5055141;28;20044;-72
2021/12/17 05:25:54;;;;;;;55.20;14.38;;;8.00;99.90;;;;;;5056471;28;20049;-72
2021/12/17 05:28:21;;;;;;;55.38;14.35;;;8.10;99.90;;;;;;5039183;28;20471;-73
2021/12/17 05:30:48;;;;;;;69.43;14.95;;;8.00;99.90;;;;;;5056989;28;20045;-75
2021/12/17 05:33:19;;;;;;;65.88;15.60;;;8.00;99.90;;;;;;5056509;28;20047;-72
2021/12/17 05:35:46;;;;;;;46.60;13.43;;;8.00;99.90;;;;;;5055888;28;20136;-72
2021/12/17 05:38:13;;;;;;;47.45;13.40;;;8.00;99.90;;;;;;5039542;28;20387;-75
2021/12/17 05:40:41;;;;;;;67.60;14.68;;;8.00;99.90;;;;;;5056004;28;20041;-75
2021/12/17 05:43:07;;;;;;;46.92;13.50;;;8.00;99.90;;;;;;5055247;28;20471;-72
2021/12/17 05:45:48;;;;;;;101.45;17.30;;;8.00;99.90;;;;;;5055194;28;20037;-75
2021/12/17 05:48:16;;;;;;;41.42;12.93;;;8.00;99.90;;;;;;5039157;28;20076;-72
2021/12/17 05:50:44;;;;;;;54.58;14.80;;;8.00;99.90;;;;;;5055889;28;20119;-75
2021/12/17 05:53:10;;;;;;;50.15;15.15;;;8.00;99.90;;;;;;5055370;28;20052;-72
2021/12/17 05:55:37;;;;;;;65.15;17.70;;;8.00;99.90;;;;;;5055356;28;20047;-75
2021/12/17 05:58:04;;;;;;;65.35;17.77;;;8.00;99.90;;;;;;5056565;28;20045;-72
2021/12/17 06:00:31;;;;;;;59.55;16.15;;;8.00;99.90;;;;;;5039254;28;20045;-75
2021/12/17 06:03:02;;;;;;;71.60;16.35;;;8.00;99.90;;;;;;5039120;28;20041;-72
2021/12/17 06:05:28;;;;;;;75.60;16.30;;;8.00;99.90;;;;;;5055447;28;20048;-72
2021/12/17 06:07:55;;;;;;;54.63;14.82;;;8.00;99.90;;;;;;5055253;28;20033;-75
2021/12/17 06:10:21;;;;;;;107.57;17.85;;;8.00;99.90;;;;;;5055261;28;20083;-74
2021/12/17 06:12:47;;;;;;;73.32;16.27;;;8.00;99.90;;;;;;5055356;28;20080;-73
2021/12/17 06:15:15;;;;;;;85.63;20.52;;;8.00;99.90;;;;;;5038740;28;20079;-72
2021/12/17 06:17:43;;;;;;;99.57;21.70;;;8.00;99.90;;;;;;5055367;28;20383;-75
2021/12/17 06:20:12;;;;;;;89.15;20.52;;;7.90;99.90;;;;;;5055169;28;20479;-72
2021/12/17 06:22:38;;;;;;;82.10;19.60;;;7.90;99.90;;;;;;5054573;28;20364;-72
2021/12/17 06:25:05;;;;;;;80.15;18.75;;;8.00;99.90;;;;;;5055572;28;20502;-73
2021/12/17 06:27:31;;;;;;;72.95;17.55;;;7.90;99.90;;;;;;5055472;28;20073;-72
2021/12/17 06:29:57;;;;;;;96.18;18.98;;;7.90;99.90;;;;;;5038389;28;20122;-72
2021/12/17 06:32:24;;;;;;;98.72;19.05;;;7.90;99.90;;;;;;5055020;28;20384;-72
2021/12/17 06:34:50;;;;;;;68.40;18.08;;;7.90;99.90;;;;;;5054724;28;20049;-72
2021/12/17 06:37:17;;;;;;;69.85;15.38;;;7.90;99.90;;;;;;5054467;28;20437;-74
2021/12/17 06:39:43;;;;;;;89.72;17.50;;;7.90;99.90;;;;;;5055413;28;20037;-72
2021/12/17 06:42:10;;;;;;;108.03;18.13;;;7.90;99.90;;;;;;5055100;28;20073;-72
2021/12/17 06:44:37;;;;;;;67.68;16.50;;;7.90;99.90;;;;;;5054942;28;20091;-72
2021/12/17 06:47:09;;;;;;;68.20;14.50;;;7.90;99.90;;;;;;5054450;28;20086;-72
2021/12/17 07:09:14;;;;;;;59.67;13.05;;;7.90;99.90;;;;;;5054368;28;20052;-75
2021/12/17 07:32:43;;;;;;;65.75;15.30;;;7.80;99.90;;;;;;5070527;28;20037;-72
2021/12/17 07:39:53;;;;;;;49.75;15.60;;;7.90;99.90;;;;;;5070206;28;20068;-71
2021/12/17 07:42:19;;;;;;;61.88;19.83;;;7.80;99.90;;;;;;5054096;28;20387;-72
2021/12/17 07:44:44;;;;;;;71.88;21.25;;;7.80;99.90;;;;;;5036470;28;20387;-72
2021/12/17 07:47:10;;;;;;;68.80;19.27;;;7.80;99.90;;;;;;5053962;28;20053;-71
2021/12/17 07:49:36;;;;;;;90.93;26.33;;;7.90;99.90;;;;;;5036817;28;20041;-72
2021/12/17 07:52:03;;;;;;;61.65;22.98;;;7.90;99.90;;;;;;5054251;28;20040;-72
2021/12/17 07:54:28;;;;;;;149.13;75.97;;;7.90;99.90;;;;;;5053223;28;20055;-72
2021/12/17 07:56:54;;;;;;;93.90;28.52;;;7.90;99.90;;;;;;5053208;28;20159;-75
2021/12/17 07:59:20;;;;;;;89.97;26.90;;;7.80;99.90;;;;;;5053763;28;20060;-72
2021/12/17 08:01:46;;;;;;;72.93;23.58;;;7.90;99.90;;;;;;5053833;28;20368;-72
2021/12/17 08:04:13;;;;;;;71.22;24.48;;;7.90;99.90;;;;;;5053311;28;20453;-72
2021/12/17 08:06:39;;;;;;;80.68;25.25;;;7.90;99.90;;;;;;5053289;28;20037;-72
2021/12/17 08:09:05;;;;;;;83.18;26.10;;;7.90;99.90;;;;;;5052748;28;20076;-72
2021/12/17 08:11:37;;;;;;;71.20;26.20;;;7.90;99.90;;;;;;5036910;28;20103;-71
2021/12/17 08:14:07;;;;;;;88.05;25.70;;;7.90;99.90;;;;;;5053454;28;20032;-72
2021/12/17 08:16:41;;;;;;;78.25;27.88;;;7.90;99.90;;;;;;5053302;28;20049;-71
2021/12/17 08:31:59;;;;;;;65.55;18.00;;;8.00;99.90;;;;;;5052635;28;20051;-74
2021/12/17 08:34:25;;;;;;;62.42;18.08;;;8.00;99.90;;;;;;5052981;28;20045;-72
2021/12/17 08:36:51;;;;;;;70.45;17.63;;;8.00;99.90;;;;;;5052227;28;20414;-75
2021/12/17 08:39:17;;;;;;;60.70;16.60;;;8.00;99.90;;;;;;5052720;28;20052;-72
2021/12/17 08:41:44;;;;;;;70.30;16.05;;;8.00;99.90;;;;;;5052800;28;20048;-71
2021/12/17 08:44:09;;;;;;;57.30;16.13;;;8.00;99.90;;;;;;5036103;28;20041;-74
2021/12/17 08:46:36;;;;;;;48.60;14.88;;;8.00;99.90;;;;;;5052185;28;20044;-73
2021/12/17 08:49:04;;;;;;;53.15;16.52;;;8.00;99.90;;;;;;5036149;28;20051;-79
2021/12/17 08:51:30;;;;;;;52.78;15.80;;;8.00;99.90;;;;;;5051570;28;20155;-74
2021/12/17 08:53:56;;;;;;;51.78;16.35;;;8.00;99.90;;;;;;5035613;28;20036;-72
2021/12/17 08:56:23;;;;;;;53.50;16.00;;;8.00;99.90;;;;;;5052535;28;20045;-75
2021/12/17 08:58:53;;;;;;;57.33;15.73;;;8.00;99.90;;;;;;5052469;28;20052;-72
2021/12/17 09:01:19;;;;;;;;;;;8.10;99.90;;;;;;5052513;28;20356;-72
2021/12/17 09:03:47;;;;;;;44.67;13.23;;;8.10;99.90;;;;;;5052744;28;19917;-74
2021/12/17 09:06:13;;;;;;;48.50;15.73;;;8.10;99.90;;;;;;5052210;28;20052;-74
2021/12/17 09:08:38;;;;;;;56.95;18.23;;;8.10;99.90;;;;;;5034537;28;20044;-72
2021/12/17 09:11:04;;;;;;;61.75;22.23;;;8.10;99.90;;;;;;5051801;28;20041;-72
2021/12/17 09:13:30;;;;;;;119.10;48.25;;;8.10;99.90;;;;;;5052317;28;20040;-72
2021/12/17 09:15:58;;;;;;;68.28;25.73;;;8.20;99.90;;;;;;5035346;28;20204;-74
2021/12/17 09:18:24;;;;;;;45.63;15.95;;;8.10;99.90;;;;;;5052235;28;20048;-72
2021/12/17 09:20:51;;;;;;;47.15;15.43;;;8.20;99.90;;;;;;5052443;28;20045;-73
2021/12/17 09:23:17;;;;;;;57.80;24.60;;;8.20;99.90;;;;;;5035385;28;20514;-72
2021/12/17 09:25:43;;;;;;;82.47;40.92;;;8.20;99.90;;;;;;5052074;28;20048;-72
2021/12/17 09:28:10;;;;;;;53.08;18.88;;;8.20;99.90;;;;;;5051795;28;20041;-72
2021/12/17 09:30:36;;;;;;;65.05;30.00;;;8.20;99.90;;;;;;5052338;28;20037;-74
2021/12/17 09:33:02;;;;;;;69.22;33.85;;;8.20;99.90;;;;;;5052143;28;20475;-72
2021/12/17 09:35:28;;;;;;;46.03;18.40;;;8.20;99.90;;;;;;5051816;28;20098;-71
2021/12/17 09:37:54;;;;;;;68.13;31.35;;;8.30;99.90;;;;;;5052159;28;20053;-72
2021/12/17 09:40:19;;;;;;;67.13;31.52;;;8.30;99.90;;;;;;5035086;28;20120;-72
2021/12/17 09:42:45;;;;;;;66.10;28.92;;;8.30;99.90;;;;;;5051799;28;20041;-72
2021/12/17 09:45:13;;;;;;;70.55;32.22;;;8.30;99.90;;;;;;5051784;28;20037;-72
2021/12/17 09:47:40;;;;;;;59.65;27.92;;;8.40;99.90;;;;;;5051488;28;20048;-72
2021/12/17 09:50:08;;;;;;;45.78;20.05;;;8.40;99.90;;;;;;5051828;28;20037;-73
2021/12/17 09:52:34;;;;;;;44.15;16.13;;;8.40;99.90;;;;;;5052020;28;20041;-72
2021/12/17 09:55:00;;;;;;;52.38;26.70;;;8.40;99.90;;;;;;5051994;28;20094;-73
2021/12/17 09:57:26;;;;;;;44.38;17.38;;;8.40;99.90;;;;;;5051702;28;20131;-71
2021/12/17 09:59:53;;;;;;;51.47;29.70;;;8.50;99.90;;;;;;5035332;28;20179;-73
2021/12/17 10:02:20;;;;;;;40.25;17.60;;;8.50;99.90;;;;;;5052087;28;20041;-71
2021/12/17 10:04:46;;;;;;;43.13;24.08;;;8.50;99.90;;;;;;5051999;28;20040;-72
2021/12/17 10:07:27;;;;;;;40.58;18.27;;;8.50;99.90;;;;;;5051680;28;20048;-71
2021/12/17 10:09:59;;;;;;;35.75;14.60;;;8.50;99.90;;;;;;5054764;28;20049;-73
2021/12/17 10:12:28;;;;;;;35.15;15.48;;;8.50;99.90;;;;;;5055823;28;20037;-73
2021/12/17 10:15:13;;;;;;;34.13;14.30;;;8.60;99.90;;;;;;5055779;28;20360;-73
2021/12/17 10:18:01;;;;;;;33.95;13.27;;;8.60;99.90;;;;;;5055550;28;20041;-72
2021/12/17 10:20:29;;;;;;;37.28;14.52;;;8.60;99.90;;;;;;5054313;28;20076;-73
2021/12/17 10:23:04;;;;;;;32.42;13.43;;;8.60;99.90;;;;;;5054583;28;20481;-74
2021/12/17 10:25:32;;;;;;;34.80;13.63;;;8.60;99.90;;;;;;5054287;28;20049;-73
2021/12/17 10:28:03;;;;;;;33.00;13.43;;;8.60;99.90;;;;;;5054108;28;20475;-72
2021/12/17 10:30:30;;;;;;;32.13;13.15;;;8.70;99.90;;;;;;5054116;28;20098;-72
2021/12/17 10:32:58;;;;;;;33.63;13.95;;;8.70;99.90;;;;;;5054277;28;20387;-72
2021/12/17 10:35:27;;;;;;;39.42;16.75;;;8.70;99.90;;;;;;5053968;28;20059;-72
2021/12/17 10:37:57;;;;;;;30.88;13.75;;;8.70;99.90;;;;;;5054150;28;20052;-73
2021/12/17 10:40:32;;;;;;;34.40;14.20;;;8.80;99.90;;;;;;5053606;28;20041;-73
2021/12/17 10:43:12;;;;;;;66.53;49.67;;;8.80;99.90;;;;;;5054201;28;20464;-73
2021/12/17 10:45:42;;;;;;;46.22;27.88;;;8.80;99.90;;;;;;5054100;28;20040;-71
2021/12/17 10:48:30;;;;;;;31.73;15.75;;;8.80;99.90;;;;;;5036597;28;20041;-74
2021/12/17 10:51:13;;;;;;;37.70;25.70;;;8.80;99.90;;;;;;5052635;28;20086;-73
2021/12/17 10:53:54;;;;;;;31.38;13.60;;;8.80;99.90;;;;;;5053522;28;20037;-72
2021/12/17 10:56:25;;;;;;;27.52;13.15;;;8.80;99.90;;;;;;5053504;28;20041;-74
2021/12/17 10:58:55;;;;;;;28.23;12.18;;;8.80;99.90;;;;;;5053148;28;20118;-74
2021/12/17 11:01:36;;;;;;;;;;;8.80;99.90;;;;;;5053267;28;20052;-72
2021/12/17 11:04:16;;;;;;;55.10;20.65;;;8.80;99.90;;;;;;5053378;28;19916;-72
2021/12/17 11:06:48;;;;;;;50.92;18.65;;;8.80;99.90;;;;;;5053875;28;20041;-72
2021/12/17 11:09:31;;;;;;;72.75;23.45;;;8.90;99.90;;;;;;5053540;28;20041;-72
2021/12/17 11:12:01;;;;;;;58.58;22.73;;;8.90;99.90;;;;;;5053466;28;20383;-72
2021/12/17 11:14:27;;;;;;;;;;;8.90;99.90;;;;;;5053748;28;20095;-73
2021/12/17 11:16:53;;;;;;;64.15;32.13;;;8.90;99.90;;;;;;5053367;28;20338;-72
2021/12/17 11:19:18;;;;;;;43.80;21.85;;;8.90;99.90;;;;;;5052500;28;20060;-75
2021/12/17 11:21:44;;;;;;;34.63;16.67;;;8.90;99.90;;;;;;5053528;28;20040;-73
2021/12/17 11:24:10;;;;;;;30.65;14.60;;;9.00;99.90;;;;;;5054067;28;20498;-73
2021/12/17 11:26:36;;;;;;;26.48;13.38;;;9.00;99.90;;;;;;5054025;28;20033;-72
2021/12/17 11:29:03;;;;;;;31.73;13.45;;;9.00;99.90;;;;;;5053154;28;20037;-73
2021/12/17 11:31:32;;;;;;;28.10;15.48;;;9.00;99.90;;;;;;5038237;28;20101;-73
2021/12/17 11:34:01;;;;;;;28.60;13.35;;;9.00;99.90;;;;;;5054606;28;20234;-72
2021/12/17 11:36:28;;;;;;;29.10;13.43;;;9.00;99.90;;;;;;5036918;28;20080;-73
2021/12/17 11:39:22;;;;;;;26.80;13.32;;;9.10;99.90;;;;;;5052795;28;20044;-73
2021/12/17 11:42:24;;;;;;;33.13;14.25;;;9.10;99.90;;;;;;5033661;28;20043;-74
2021/12/17 11:45:23;;;;;;;29.10;15.45;;;9.00;99.90;;;;;;5046434;28;20471;-72
2021/12/17 11:47:41;;;;;;;29.40;13.90;;;9.10;99.90;;;;;;5052754;28;20052;-73
2021/12/17 11:50:10;;;;;;;28.63;12.48;;;9.10;99.90;;;;;;5053255;28;20131;-72
2021/12/17 11:52:46;;;;;;;27.98;13.27;;;9.10;99.90;;;;;;5053717;28;20056;-73
2021/12/17 11:55:25;;;;;;;29.52;14.75;;;9.10;99.90;;;;;;5053983;28;20060;-72
2021/12/17 11:57:53;;;;;;;28.93;13.07;;;9.10;99.90;;;;;;5053432;28;20537;-72
2021/12/17 12:00:32;;;;;;;30.20;14.27;;;9.00;99.90;;;;;;5069903;28;20102;-72
2021/12/17 12:03:19;;;;;;;28.73;13.05;;;9.10;99.90;;;;;;5070087;28;20570;-72
2021/12/17 12:05:49;;;;;;;27.02;11.73;;;9.10;99.90;;;;;;5053527;28;20048;-74
2021/12/17 12:08:24;;;;;;;26.75;13.00;;;9.10;99.90;;;;;;5036612;28;20052;-73
2021/12/17 12:11:17;;;;;;;30.73;13.40;;;9.10;99.90;;;;;;5052945;28;20442;-73
2021/12/17 12:13:48;;;;;;;30.83;13.95;;;9.10;99.90;;;;;;5069443;28;20040;-74
2021/12/17 12:16:25;;;;;;;29.30;14.38;;;9.10;99.90;;;;;;5069766;28;20045;-72
2021/12/17 12:18:53;;;;;;;28.60;13.38;;;9.10;99.90;;;;;;5069698;28;20090;-73
2021/12/17 12:21:21;;;;;;;30.48;13.27;;;9.10;99.90;;;;;;5069382;28;20037;-72
2021/12/17 12:24:14;;;;;;;33.15;14.13;;;9.20;99.90;;;;;;5037049;28;20052;-71
2021/12/17 12:26:40;;;;;;;32.75;14.70;;;9.20;99.90;;;;;;5052865;28;20040;-72
2021/12/17 12:29:22;;;;;;;30.35;14.98;;;9.20;99.90;;;;;;5036348;28;20037;-72
2021/12/17 12:31:54;;;;;;;34.08;16.90;;;9.20;99.90;;;;;;5068936;28;20037;-72
2021/12/17 12:34:28;;;;;;;28.05;14.25;;;9.30;99.90;;;;;;5051637;28;20514;-72
2021/12/17 12:37:00;;;;;;;91.65;31.35;;;9.30;99.90;;;;;;5051947;28;20479;-73
2021/12/17 12:39:30;;;;;;;151.02;41.42;;;9.30;99.90;;;;;;5052002;28;20041;-72
2021/12/17 12:42:14;;;;;;;161.35;53.00;;;9.30;99.90;;;;;;5052095;28;20499;-71
2021/12/17 12:44:46;;;;;;;227.38;73.28;;;9.30;99.90;;;;;;5052862;28;20049;-74
2021/12/17 12:47:24;;;;;;;161.80;62.90;;;9.40;99.90;;;;;;5035407;28;20048;-72
2021/12/17 12:49:56;;;;;;;44.85;19.63;;;9.40;99.90;;;;;;5051654;28;20041;-71
2021/12/17 12:52:33;;;;;;;30.40;13.98;;;9.40;99.90;;;;;;5052015;28;20040;-73
2021/12/17 12:55:02;;;;;;;26.92;13.18;;;9.50;99.90;;;;;;5052126;28;20044;-74
2021/12/17 12:57:27;;;;;;;25.73;11.75;;;9.50;99.90;;;;;;5035966;28;20048;-72
2021/12/17 12:59:57;;;;;;;25.67;11.38;;;9.50;99.90;;;;;;5035245;28;20037;-72
2021/12/17 13:02:26;;;;;;;25.35;13.38;;;9.60;99.90;;;;;;5052187;28;20041;-73
2021/12/17 13:04:54;;;;;;;23.77;11.90;;;9.60;99.90;;;;;;5051742;28;20041;-72
2021/12/17 13:07:44;;;;;;;25.95;12.27;;;9.50;99.90;;;;;;5051758;28;20187;-72
2021/12/17 13:10:19;;;;;;;23.02;10.75;;;9.60;99.90;;;;;;5051686;28;20041;-72
2021/12/17 13:16:42;;;;;;;20.33;9.65;;;9.50;99.90;;;;;;5033758;28;20481;-72
2021/12/17 13:21:58;;;;;;;21.77;10.23;;;9.50;99.90;;;;;;5051119;28;20047;-72
2021/12/17 13:24:30;;;;;;;24.10;11.73;;;9.50;99.90;;;;;;5051522;28;20495;-74
2021/12/17 13:27:10;;;;;;;22.67;11.30;;;9.50;99.90;;;;;;5052077;28;20041;-73
2021/12/17 13:29:38;;;;;;;28.25;17.23;;;9.50;99.90;;;;;;5051363;28;20087;-72
2021/12/17 13:32:09;;;;;;;26.30;14.77;;;9.50;99.90;;;;;;5051544;28;20045;-72
2021/12/17 13:34:48;;;;;;;24.65;12.02;;;9.50;99.90;;;;;;4997380;28;1077947;-72
2021/12/17 13:37:15;;;;;;;22.17;10.93;;;9.50;99.90;;;;;;5052693;28;20044;-74
2021/12/17 13:39:56;;;;;;;20.30;11.50;;;9.50;99.90;;;;;;5053096;28;20051;-74
2021/12/17 13:42:32;;;;;;;21.10;10.32;;;9.50;99.90;;;;;;5035878;28;20047;-72
2021/12/17 13:45:00;;;;;;;20.85;10.23;;;9.50;99.90;;;;;;5055900;28;20052;-71
2021/12/17 13:47:30;;;;;;;19.02;10.48;;;9.50;99.90;;;;;;5056163;28;20036;-72
2021/12/17 13:50:25;;;;;;;18.55;10.15;;;9.50;99.90;;;;;;5055830;28;20040;-71
2021/12/17 13:53:01;;;;;;;17.73;7.90;;;9.50;99.90;;;;;;5039384;28;20471;-72
2021/12/17 13:55:30;;;;;;;16.27;9.43;;;9.50;99.90;;;;;;5056312;28;20053;-72
2021/12/17 13:58:25;;;;;;;19.40;9.35;;;9.40;99.90;;;;;;5056181;28;20064;-72
2021/12/17 14:00:53;;;;;;;16.70;9.50;;;9.40;99.90;;;;;;5056223;28;20079;-74
2021/12/17 14:03:22;;;;;;;23.92;13.43;;;9.40;99.90;;;;;;5039230;28;20251;-73
2021/12/17 14:05:58;;;;;;;20.50;10.00;;;9.40;99.90;;;;;;5055905;28;20044;-72
2021/12/17 14:08:24;;;;;;;22.67;10.50;;;9.40;99.90;;;;;;5055931;28;20048;-72
2021/12/17 14:10:53;;;;;;;23.73;9.40;;;9.40;99.90;;;;;;5056136;28;20045;-73
2021/12/17 14:13:21;;;;;;;18.73;8.90;;;9.40;99.90;;;;;;5039188;28;20044;-72
2021/12/17 14:15:49;;;;;;;20.17;9.25;;;9.40;99.90;;;;;;5055697;28;20041;-72
2021/12/17 14:18:18;;;;;;;21.25;9.65;;;9.40;99.90;;;;;;5055456;28;20059;-72
2021/12/17 14:20:46;;;;;;;19.17;8.93;;;9.40;99.90;;;;;;5055721;28;20048;-71
2021/12/17 14:23:22;;;;;;;21.13;10.43;;;9.40;99.90;;;;;;5055973;28;20124;-74
2021/12/17 14:25:49;;;;;;;17.70;9.10;;;9.40;99.90;;;;;;5055545;28;20049;-72
2021/12/17 14:28:23;;;;;;;20.10;9.25;;;9.40;99.90;;;;;;5055719;28;20039;-73
2021/12/17 14:31:10;;;;;;;16.33;8.90;;;9.40;99.90;;;;;;5055341;28;20472;-75
2021/12/17 14:33:36;;;;;;;18.73;10.13;;;9.40;99.90;;;;;;5038581;28;20371;-72
2021/12/17 14:36:06;;;;;;;17.67;8.60;;;9.40;99.90;;;;;;5038421;28;20472;-72
2021/12/17 14:38:37;;;;;;;;;;;9.30;99.90;;;;;;5038993;28;20041;-72
2021/12/17 14:41:04;;;;;;;17.63;8.43;;;9.30;99.90;;;;;;5055091;28;19924;-72
2021/12/17 14:43:42;;;;;;;15.60;8.73;;;9.30;99.90;;;;;;5038836;28;20076;-72
2021/12/17 14:46:32;;;;;;;23.08;10.30;;;9.30;99.90;;;;;;5038979;28;20052;-73
2021/12/17 15:03:39;;;;;;;11.40;7.72;;;9.20;99.90;;;;;;5054888;28;20091;-72
2021/12/17 15:06:05;;;;;;;9.23;5.20;;;9.20;99.90;;;;;;5054816;28;20045;-75
2021/12/17 15:08:31;;;;;;;7.47;4.45;;;9.20;99.90;;;;;;5037946;28;20511;-71
2021/12/17 15:10:58;;;;;;;9.80;5.30;;;9.20;99.90;;;;;;5038355;28;20127;-73
2021/12/17 15:13:24;;;;;;;7.03;4.53;;;9.20;99.90;;;;;;5038061;28;20048;-72
2021/12/17 15:15:52;;;;;;;6.53;3.30;;;9.10;99.90;;;;;;5054274;28;20033;-72
2021/12/17 15:18:19;;;;;;;5.65;2.80;;;9.10;99.90;;;;;;5037797;28;20045;-74
2021/12/17 15:20:54;;;;;;;5.97;2.80;;;9.10;99.90;;;;;;5054276;28;20037;-74
2021/12/17 15:23:20;;;;;;;3.40;2.13;;;9.10;99.90;;;;;;5054604;28;20052;-74
2021/12/17 15:25:47;;;;;;;5.20;2.13;;;9.10;99.90;;;;;;5054311;28;20487;-74
2021/12/17 15:28:16;;;;;;;3.25;2.00;;;9.10;99.90;;;;;;5037778;28;20516;-74
2021/12/17 15:30:51;;;;;;;2.78;2.10;;;9.10;99.90;;;;;;5054503;28;20041;-73
2021/12/17 15:33:17;;;;;;;3.90;2.40;;;9.10;99.90;;;;;;5054117;28;20041;-74
2021/12/17 15:35:44;;;;;;;8.68;5.38;;;9.10;99.90;;;;;;5053667;28;20058;-72
2021/12/17 15:38:11;;;;;;;6.90;3.35;;;9.00;99.90;;;;;;5037795;28;20090;-73
2021/12/17 15:40:42;;;;;;;6.10;4.68;;;9.10;99.90;;;;;;5054379;28;20123;-74
2021/12/17 15:43:08;;;;;;;6.68;4.43;;;9.00;99.90;;;;;;5054003;28;20437;-75
2021/12/17 15:45:40;;;;;;;6.22;3.72;;;9.00;99.90;;;;;;5054719;28;20041;-72
2021/12/17 15:48:07;;;;;;;6.25;3.45;;;9.00;99.90;;;;;;5053542;28;20037;-74
2021/12/17 15:50:34;;;;;;;5.95;3.45;;;9.00;99.90;;;;;;5053592;28;20045;-72
2021/12/17 15:52:59;;;;;;;6.28;3.92;;;9.00;99.90;;;;;;5053950;28;20079;-74
2021/12/17 15:55:28;;;;;;;8.30;4.57;;;9.00;99.90;;;;;;5054112;28;20194;-73
2021/12/17 15:57:56;;;;;;;10.27;7.70;;;9.00;99.90;;;;;;5053738;28;20479;-74
2021/12/17 16:00:27;;;;;;;10.05;6.57;;;9.00;99.90;;;;;;5053557;28;20099;-72
2021/12/17 16:02:54;;;;;;;11.07;5.93;;;9.00;99.90;;;;;;5053736;28;20048;-75
2021/12/17 16:05:22;;;;;;;10.77;5.20;;;9.00;99.90;;;;;;5053919;28;20078;-72
2021/12/17 16:07:50;;;;;;;11.32;6.60;;;9.00;99.90;;;;;;5053332;28;20053;-72